Time;durP1;ratioP1;P1;durP2;ratioP2;P2;SDS_P1;SDS_P2;PMS_P1;PMS_P2;Temp;Humidity;BMP_temperature;BMP_pressure;BME280_temperature;BME280_humidity;BME280_pressure;Samples;Min_cycle;Max_cycle;Signal;HPM_P1;HPM_P2
2023/12/05 00:00:40;;;;;;;23.10;12.35;;;;;;;-0.98;100.00;99868.78;6123504;23;20116;-81
2023/12/05 00:03:07;;;;;;;20.88;11.63;;;;;;;-0.94;100.00;99866.34;6097614;23;20053;-82
2023/12/05 00:05:33;;;;;;;24.20;11.95;;;;;;;-0.96;100.00;99862.00;6123124;23;20034;-81
2023/12/05 00:08:00;;;;;;;23.05;12.13;;;;;;;-0.98;100.00;99848.22;6121211;23;20086;-82
2023/12/05 00:10:26;;;;;;;22.38;11.82;;;;;;;-1.01;100.00;99847.31;6097117;23;20526;-81
2023/12/05 00:12:53;;;;;;;20.95;12.07;;;;;;;-0.92;100.00;99838.13;6121231;23;20051;-81
2023/12/05 00:15:19;;;;;;;24.40;11.80;;;;;;;-0.97;100.00;99837.13;6116328;23;20017;-81
2023/12/05 00:17:46;;;;;;;21.55;12.30;;;;;;;-1.05;100.00;99839.50;6121502;23;20021;-81
2023/12/05 00:20:13;;;;;;;22.27;11.73;;;;;;;-0.95;100.00;99835.44;6097096;23;20025;-80
2023/12/05 00:22:39;;;;;;;20.58;11.55;;;;;;;-0.98;100.00;99835.38;6121477;23;20025;-81
2023/12/05 00:25:07;;;;;;;19.50;11.40;;;;;;;-1.01;100.00;99829.31;6121568;23;20032;-81
2023/12/05 00:27:33;;;;;;;22.10;11.95;;;;;;;-0.96;100.00;99813.19;6099688;23;20371;-81
2023/12/05 00:30:03;;;;;;;17.98;11.23;;;;;;;-0.98;100.00;99823.41;6098870;23;20025;-80
2023/12/05 00:32:31;;;;;;;19.98;11.77;;;;;;;-0.94;100.00;99811.50;6122043;23;20017;-80
2023/12/05 00:34:58;;;;;;;26.45;12.73;;;;;;;-0.95;100.00;99815.78;6122872;23;20053;-81
2023/12/05 00:37:24;;;;;;;23.65;12.40;;;;;;;-0.97;100.00;99811.44;6099223;23;20037;-80
2023/12/05 00:39:51;;;;;;;31.52;12.13;;;;;;;-1.03;100.00;99823.31;6123444;23;20025;-80
2023/12/05 00:42:17;;;;;;;20.23;11.38;;;;;;;-0.96;100.00;99813.19;6122292;23;20029;-81
2023/12/05 00:44:44;;;;;;;22.98;12.52;;;;;;;-1.03;100.00;99813.03;6123301;23;20017;-81
2023/12/05 00:47:10;;;;;;;22.33;12.38;;;;;;;-0.97;100.00;99814.88;6123328;23;20021;-80
2023/12/05 00:49:37;;;;;;;24.23;12.20;;;;;;;-0.97;100.00;99812.28;6123078;23;20025;-82
2023/12/05 00:52:04;;;;;;;19.73;12.25;;;;;;;-0.86;100.00;99807.41;6121358;23;20092;-80
2023/12/05 00:54:31;;;;;;;24.80;13.10;;;;;;;-0.92;100.00;99800.44;6123255;23;20021;-81
2023/12/05 00:56:57;;;;;;;24.75;14.43;;;;;;;-0.91;100.00;99802.16;6122764;23;20025;-80
2023/12/05 00:59:24;;;;;;;21.58;12.48;;;;;;;-0.89;100.00;99812.47;6097959;23;20425;-81
2023/12/05 01:01:50;;;;;;;21.90;12.52;;;;;;;-0.87;100.00;99810.81;6097046;23;20021;-80
2023/12/05 01:04:17;;;;;;;26.90;13.80;;;;;;;-0.91;100.00;99801.28;6123947;23;20033;-80
2023/12/05 01:06:44;;;;;;;20.98;12.25;;;;;;;-0.92;100.00;99797.00;6096352;23;20021;-80
2023/12/05 01:09:10;;;;;;;24.50;14.23;;;;;;;-0.92;100.00;99804.72;6096989;23;20017;-80
2023/12/05 01:11:37;;;;;;;24.85;12.70;;;;;;;-0.98;100.00;99795.13;6097173;23;20022;-81
2023/12/05 01:14:04;;;;;;;27.77;15.07;;;;;;;-0.94;100.00;99796.09;6123581;23;20002;-81
2023/12/05 01:16:30;;;;;;;28.52;13.48;;;;;;;-0.97;100.00;99796.88;6122758;23;20021;-81
2023/12/05 01:18:57;;;;;;;23.15;13.90;;;;;;;-0.96;100.00;99796.06;6120242;23;20025;-80
2023/12/05 01:21:23;;;;;;;26.25;14.27;;;;;;;-0.91;100.00;99785.88;6121271;23;20141;-81
2023/12/05 01:23:50;;;;;;;27.88;14.02;;;;;;;-0.94;100.00;99789.25;6123522;23;20108;-81
2023/12/05 01:26:16;;;;;;;25.58;13.30;;;;;;;-0.90;100.00;99792.75;6122298;23;20021;-81
2023/12/05 01:28:43;;;;;;;22.60;13.05;;;;;;;-0.84;100.00;99782.63;6097476;23;20033;-81
2023/12/05 01:31:09;;;;;;;23.55;13.85;;;;;;;-0.89;100.00;99782.50;6122233;23;20037;-81
2023/12/05 01:33:36;;;;;;;21.98;13.55;;;;;;;-0.96;100.00;99790.06;6098954;23;20513;-81
2023/12/05 01:36:12;;;;;;;21.63;12.65;;;;;;;-0.93;100.00;99793.53;6123534;23;20043;-82
2023/12/05 01:38:39;;;;;;;23.88;13.73;;;;;;;-0.91;100.00;99789.31;6123030;23;20029;-81
2023/12/05 01:41:07;;;;;;;26.45;15.02;;;;;;;-0.89;100.00;99786.78;6097850;23;20018;-80
2023/12/05 01:43:33;;;;;;;25.23;15.00;;;;;;;-0.90;100.00;99788.50;6098624;23;20025;-81
2023/12/05 01:46:01;;;;;;;28.40;15.02;;;;;;;-0.94;100.00;99780.66;6123354;23;20029;-81
2023/12/05 01:48:28;;;;;;;25.95;13.85;;;;;;;-0.92;100.00;99781.59;6123093;23;20017;-81
2023/12/05 01:50:56;;;;;;;26.33;15.30;;;;;;;-0.91;100.00;99786.75;6146122;23;20035;-80
2023/12/05 01:53:22;;;;;;;23.90;14.10;;;;;;;-0.90;100.00;99783.34;6122333;23;20355;-81
2023/12/05 01:55:51;;;;;;;27.48;13.32;;;;;;;-0.90;100.00;99783.34;6124368;23;20021;-81
2023/12/05 01:58:18;;;;;;;33.28;15.50;;;;;;;-0.92;100.00;99774.72;6100578;23;20069;-81
2023/12/05 02:00:45;;;;;;;29.10;14.32;;;;;;;-0.89;100.00;99772.22;6124216;23;20025;-81
2023/12/05 02:03:13;;;;;;;30.20;14.57;;;;;;;-0.86;100.00;99768.84;6098695;23;20025;-79
2023/12/05 02:05:40;;;;;;;25.33;14.07;;;;;;;-0.87;100.00;99768.00;6097984;23;20416;-80
2023/12/05 02:08:09;;;;;;;24.63;13.98;;;;;;;-0.78;100.00;99772.50;6099314;23;20733;-81
2023/12/05 02:10:36;;;;;;;27.83;14.52;;;;;;;-0.77;100.00;99765.63;6100078;23;20105;-81
2023/12/05 02:13:02;;;;;;;25.60;13.90;;;;;;;-0.84;100.00;99765.50;6124503;23;20116;-81
2023/12/05 02:15:29;;;;;;;27.10;13.95;;;;;;;-0.81;100.00;99756.97;6123686;23;20430;-81
2023/12/05 02:18:19;;;;;;;22.25;13.15;;;;;;;-0.90;100.00;99762.81;6124407;23;20745;-81
2023/12/05 02:20:59;;;;;;;24.75;12.40;;;;;;;-0.86;100.00;99746.63;6123362;23;20025;-82
2023/12/05 02:23:55;;;;;;;23.02;14.80;;;;;;;-0.86;100.00;99743.16;6120212;23;20776;-81
2023/12/05 02:26:59;;;;;;;20.67;12.65;;;;;;;-0.87;100.00;99751.72;6123540;23;20036;-81
2023/12/05 02:29:26;;;;;;;22.88;12.50;;;;;;;-0.85;100.00;99744.91;6099850;23;20034;-82
2023/12/05 02:31:54;;;;;;;24.30;14.30;;;;;;;-0.81;100.00;99740.72;6098126;23;20053;-80
2023/12/05 02:34:20;;;;;;;22.23;12.23;;;;;;;-0.78;100.00;99738.19;6122425;23;20032;-81
2023/12/05 02:37:05;;;;;;;30.80;14.80;;;;;;;-0.81;100.00;99730.44;6099957;23;20029;-80
2023/12/05 02:39:42;;;;;;;31.02;14.73;;;;;;;-0.89;100.00;99730.25;6123236;23;20036;-80
2023/12/05 02:42:13;;;;;;;26.92;14.02;;;;;;;-0.85;100.00;99729.50;6120085;23;20025;-81
2023/12/05 02:44:45;;;;;;;26.73;14.38;;;;;;;-0.89;100.00;99725.97;6122446;23;20455;-82
2023/12/05 02:47:14;;;;;;;25.23;14.27;;;;;;;-0.88;100.00;99722.56;6098427;23;20053;-81
2023/12/05 02:49:41;;;;;;;25.85;15.70;;;;;;;-0.84;100.00;99729.53;6123809;23;20025;-81
2023/12/05 02:52:08;;;;;;;29.17;15.05;;;;;;;-0.80;100.00;99725.31;6123152;23;20026;-80
2023/12/05 02:54:34;;;;;;;24.48;13.98;;;;;;;-0.82;100.00;99718.41;6124098;23;20029;-80
2023/12/05 02:57:01;;;;;;;25.52;14.68;;;;;;;-0.80;100.00;99724.47;6099281;23;20085;-81
2023/12/05 02:59:27;;;;;;;21.80;13.93;;;;;;;-0.81;100.00;99726.16;6098334;23;20022;-81
2023/12/05 03:01:54;;;;;;;23.20;13.68;;;;;;;-0.82;100.00;99721.88;6121758;23;20029;-82
2023/12/05 03:04:20;;;;;;;25.77;13.73;;;;;;;-0.77;100.00;99727.09;6097783;23;20033;-80
2023/12/05 03:06:48;;;;;;;28.23;13.85;;;;;;;-0.75;100.00;99720.28;6123629;23;20013;-83
2023/12/05 03:09:14;;;;;;;29.40;14.65;;;;;;;-0.79;100.00;99719.34;6122877;23;20064;-81
2023/12/05 03:11:41;;;;;;;28.42;14.52;;;;;;;-0.83;100.00;99712.41;6122173;23;20025;-81
2023/12/05 03:14:08;;;;;;;24.58;13.55;;;;;;;-0.81;100.00;99720.16;6099609;23;20350;-81
2023/12/05 03:16:34;;;;;;;28.55;15.18;;;;;;;-0.74;100.00;99710.03;6099657;23;20572;-80
2023/12/05 03:19:01;;;;;;;25.90;15.50;;;;;;;-0.91;100.00;99713.94;6099406;23;20028;-83
2023/12/05 03:21:27;;;;;;;21.10;12.68;;;;;;;-0.84;100.00;99711.53;6097526;23;20207;-81
2023/12/05 03:23:53;;;;;;;22.45;14.50;;;;;;;-0.78;100.00;99709.94;6098466;23;20395;-81
2023/12/05 03:26:21;;;;;;;24.48;13.48;;;;;;;-0.69;100.00;99710.16;6098638;23;20056;-81
2023/12/05 03:28:49;;;;;;;25.85;14.88;;;;;;;-0.77;100.00;99707.41;6123772;23;20109;-82
2023/12/05 03:31:17;;;;;;;28.40;15.20;;;;;;;-0.87;100.00;99713.19;6119599;23;20052;-81
2023/12/05 03:33:43;;;;;;;27.77;15.32;;;;;;;-0.79;100.00;99693.66;6099542;23;20060;-81
2023/12/05 03:36:12;;;;;;;26.40;14.38;;;;;;;-0.79;100.00;99703.94;6099763;23;20029;-81
2023/12/05 03:38:39;;;;;;;24.90;14.32;;;;;;;-0.71;100.00;99698.97;6098944;23;20025;-81
2023/12/05 03:41:09;;;;;;;26.98;14.43;;;;;;;-0.73;100.00;99703.19;6123531;23;20096;-81
2023/12/05 03:43:36;;;;;;;24.20;14.32;;;;;;;-0.74;100.00;99696.34;6124230;23;20084;-81
2023/12/05 03:46:03;;;;;;;29.95;15.38;;;;;;;-0.80;100.00;99698.78;6099532;23;20346;-81
2023/12/05 03:48:29;;;;;;;25.60;14.70;;;;;;;-0.85;100.00;99698.66;6123372;23;20389;-81
2023/12/05 03:50:58;;;;;;;27.13;15.07;;;;;;;-0.80;100.00;99694.47;6098037;23;20076;-82
2023/12/05 03:53:25;;;;;;;31.55;15.98;;;;;;;-0.77;100.00;99698.81;6099129;23;20029;-82
2023/12/05 03:55:51;;;;;;;29.45;15.82;;;;;;;-0.75;100.00;99695.44;6124614;23;20144;-81
2023/12/05 03:58:18;;;;;;;28.33;14.95;;;;;;;-0.76;100.00;99698.84;6123582;23;20013;-80
2023/12/05 04:00:45;;;;;;;30.50;16.23;;;;;;;-0.84;100.00;99690.97;6122859;23;20025;-81
2023/12/05 04:03:11;;;;;;;29.63;15.73;;;;;;;-0.87;100.00;99696.06;6123247;23;20032;-82
2023/12/05 04:05:38;;;;;;;27.92;15.40;;;;;;;-0.82;100.00;99693.59;6099962;23;20053;-81
2023/12/05 04:08:05;;;;;;;23.80;14.27;;;;;;;-0.85;100.00;99696.09;6120814;23;20048;-81
2023/12/05 04:10:32;;;;;;;24.17;14.57;;;;;;;-0.75;100.00;99694.59;6096764;23;20053;-81
2023/12/05 04:12:58;;;;;;;27.80;14.55;;;;;;;-0.74;100.00;99691.19;6123137;23;20029;-82
2023/12/05 04:15:25;;;;;;;23.67;15.80;;;;;;;-0.75;100.00;99700.59;6123360;23;20021;-83
2023/12/05 04:17:51;;;;;;;26.20;14.88;;;;;;;-0.78;100.00;99697.09;6124824;23;20017;-81
2023/12/05 04:20:18;;;;;;;26.83;15.40;;;;;;;-0.85;100.00;99693.50;6122316;23;20021;-81
2023/12/05 04:22:44;;;;;;;26.60;14.82;;;;;;;-0.81;100.00;99692.75;6122795;23;20026;-81
2023/12/05 04:25:11;;;;;;;25.13;15.38;;;;;;;-0.82;100.00;99697.84;6099652;23;20056;-82
2023/12/05 04:27:38;;;;;;;26.00;14.93;;;;;;;-0.78;100.00;99694.50;6123099;23;20092;-81
2023/12/05 04:30:10;;;;;;;26.80;14.63;;;;;;;-0.74;100.00;99697.19;6097212;23;20018;-79
2023/12/05 04:32:36;;;;;;;26.70;16.30;;;;;;;-0.71;100.00;99691.25;6122085;23;20021;-81
2023/12/05 04:35:04;;;;;;;24.30;13.95;;;;;;;-0.85;100.00;99699.53;6098709;23;20021;-80
2023/12/05 04:37:30;;;;;;;30.95;14.85;;;;;;;-0.78;100.00;99699.66;6098477;23;20040;-81
2023/12/05 04:39:57;;;;;;;27.10;14.60;;;;;;;-0.76;100.00;99685.16;6099803;23;20766;-81
2023/12/05 04:42:23;;;;;;;31.35;16.02;;;;;;;-0.75;100.00;99692.03;6097506;23;20108;-82
2023/12/05 04:44:50;;;;;;;25.52;14.57;;;;;;;-0.79;100.00;99688.50;6098548;23;20025;-83
2023/12/05 04:47:16;;;;;;;26.80;15.15;;;;;;;-0.80;100.00;99681.63;6123596;23;20092;-81
2023/12/05 04:49:45;;;;;;;29.55;15.25;;;;;;;-0.81;100.00;99690.19;6123173;23;20112;-81
2023/12/05 04:52:12;;;;;;;26.38;14.02;;;;;;;-0.84;100.00;99692.69;6122611;23;20076;-79
2023/12/05 04:54:39;;;;;;;32.85;16.38;;;;;;;-0.82;100.00;99687.56;6098550;23;20084;-83
2023/12/05 04:57:05;;;;;;;27.00;15.80;;;;;;;-0.78;100.00;99687.69;6124833;23;20093;-81
2023/12/05 04:59:35;;;;;;;30.92;15.77;;;;;;;-0.74;100.00;99694.63;6124961;23;20021;-82
2023/12/05 05:02:01;;;;;;;24.35;14.50;;;;;;;-0.70;100.00;99693.84;6099597;23;20021;-81
2023/12/05 05:04:28;;;;;;;26.27;14.73;;;;;;;-0.64;100.00;99684.53;6119221;23;20303;-82
2023/12/05 05:06:55;;;;;;;26.00;14.07;;;;;;;-0.71;100.00;99686.97;6092214;23;20026;-81
2023/12/05 05:09:21;;;;;;;28.02;14.85;;;;;;;-0.67;100.00;99686.19;6092019;23;20022;-81
2023/12/05 05:11:48;;;;;;;28.70;15.40;;;;;;;-0.72;100.00;99690.41;6090568;23;20022;-82
2023/12/05 05:14:14;;;;;;;27.48;14.93;;;;;;;-0.68;100.00;99688.72;6116832;23;20056;-81
2023/12/05 05:16:41;;;;;;;32.03;17.13;;;;;;;-0.69;100.00;99682.75;6117251;23;20104;-82
2023/12/05 05:19:08;;;;;;;28.00;14.77;;;;;;;-0.70;100.00;99688.72;6068632;23;20018;-80
2023/12/05 05:21:35;;;;;;;26.60;14.43;;;;;;;-0.73;100.00;99692.91;6092083;23;20034;-83
2023/12/05 05:24:02;;;;;;;30.67;15.32;;;;;;;-0.69;100.00;99689.59;6118840;23;20053;-82
2023/12/05 05:26:28;;;;;;;24.40;15.43;;;;;;;-0.68;100.00;99683.59;6090944;23;20030;-81
2023/12/05 05:28:55;;;;;;;29.65;15.77;;;;;;;-0.71;100.00;99689.53;6092756;23;20315;-81
2023/12/05 05:31:22;;;;;;;26.63;15.13;;;;;;;-0.69;100.00;99684.47;6117677;23;20104;-83
2023/12/05 05:33:48;;;;;;;26.05;15.77;;;;;;;-0.68;100.00;99683.59;6096420;23;20103;-85
2023/12/05 05:36:15;;;;;;;28.08;14.40;;;;;;;-0.72;100.00;99689.50;6103366;23;20033;-84
2023/12/05 05:38:42;;;;;;;25.83;15.05;;;;;;;-0.76;100.00;99690.28;6105507;23;20034;-85
2023/12/05 05:41:12;;;;;;;22.70;13.48;;;;;;;-0.77;100.00;99691.13;6102132;23;20018;-85
2023/12/05 05:43:47;;;;;;;25.98;13.38;;;;;;;-0.77;100.00;99686.88;6099964;23;20026;-85
2023/12/05 05:46:14;;;;;;;23.15;13.95;;;;;;;-0.73;100.00;99682.63;6102856;23;20052;-83
2023/12/05 05:48:41;;;;;;;26.52;14.38;;;;;;;-0.72;100.00;99684.38;6127295;23;20034;-84
2023/12/05 05:51:08;;;;;;;25.33;14.30;;;;;;;-0.75;100.00;99685.19;6103159;23;20050;-84
2023/12/05 05:53:34;;;;;;;27.00;14.35;;;;;;;-0.71;100.00;99688.69;6075452;23;20077;-83
2023/12/05 05:56:01;;;;;;;29.30;14.65;;;;;;;-0.82;100.00;99680.75;6100677;23;20026;-84
2023/12/05 05:58:29;;;;;;;22.92;14.10;;;;;;;-0.76;100.00;99683.44;6124091;23;20022;-82
2023/12/05 06:00:56;;;;;;;28.85;14.98;;;;;;;-0.75;100.00;99676.59;6097076;23;20045;-81
2023/12/05 06:03:23;;;;;;;26.27;14.00;;;;;;;-0.75;100.00;99679.19;6097356;23;20022;-84
2023/12/05 06:05:49;;;;;;;24.98;15.23;;;;;;;-0.72;100.00;99684.38;6082553;23;1086887;-83
2023/12/05 06:08:16;;;;;;;26.85;14.55;;;;;;;-0.68;100.00;99689.63;6128206;23;20029;-82
2023/12/05 06:10:43;;;;;;;26.27;14.77;;;;;;;-0.74;100.00;99689.47;6103776;23;20399;-82
2023/12/05 06:13:09;;;;;;;30.15;15.95;;;;;;;-0.76;100.00;99680.88;6102692;23;20371;-82
2023/12/05 06:15:36;;;;;;;26.63;15.07;;;;;;;-0.71;100.00;99688.69;6101309;23;20097;-83
2023/12/05 06:18:07;;;;;;;28.02;16.48;;;;;;;-0.73;100.00;99685.19;6102560;23;20447;-84
2023/12/05 06:20:33;;;;;;;30.75;17.23;;;;;;;-0.73;100.00;99680.94;6101191;23;20026;-85
2023/12/05 06:23:00;;;;;;;26.05;14.80;;;;;;;-0.79;100.00;99685.09;6126253;23;20033;-83
2023/12/05 06:25:27;;;;;;;26.45;14.40;;;;;;;-0.84;100.00;99687.56;6126369;23;20108;-83
2023/12/05 06:27:53;;;;;;;29.05;15.98;;;;;;;-0.79;100.00;99678.25;6124857;23;20053;-83
2023/12/05 06:30:20;;;;;;;32.33;16.42;;;;;;;-0.76;100.00;99683.44;6124472;23;20030;-83
2023/12/05 06:32:50;;;;;;;27.95;15.13;;;;;;;-0.83;100.00;99681.59;6099331;23;20112;-84
2023/12/05 06:35:17;;;;;;;31.73;16.20;;;;;;;-0.86;100.00;99677.25;6101461;23;20033;-83
2023/12/05 06:37:47;;;;;;;27.15;14.63;;;;;;;-0.97;100.00;99676.13;6099993;23;20104;-83
2023/12/05 06:40:16;;;;;;;30.00;15.88;;;;;;;-0.94;100.00;99683.03;6100588;23;20026;-82
2023/12/05 06:42:43;;;;;;;29.88;14.82;;;;;;;-0.94;100.00;99685.63;6102052;23;20455;-83
2023/12/05 06:45:11;;;;;;;31.05;16.13;;;;;;;-0.95;100.00;99686.44;6126043;23;20082;-83
2023/12/05 06:47:38;;;;;;;25.90;15.65;;;;;;;-0.93;100.00;99684.78;6100952;23;20085;-81
2023/12/05 06:50:11;;;;;;;31.10;16.52;;;;;;;-0.85;100.00;99688.38;6126792;23;20036;-83
2023/12/05 06:52:41;;;;;;;32.83;16.85;;;;;;;-0.79;100.00;99693.66;6125421;23;20213;-84
2023/12/05 06:55:09;;;;;;;32.28;16.65;;;;;;;-0.73;100.00;99692.91;6102191;23;20021;-82
2023/12/05 06:57:36;;;;;;;33.28;16.25;;;;;;;-0.78;100.00;99695.41;6124616;23;20036;-81
2023/12/05 07:00:03;;;;;;;33.92;17.27;;;;;;;-0.73;100.00;99698.94;6126889;23;20385;-82
2023/12/05 07:02:31;;;;;;;26.50;16.05;;;;;;;-0.77;100.00;99701.41;6111827;23;20025;-82
2023/12/05 07:05:02;;;;;;;35.47;18.40;;;;;;;-0.78;100.00;99700.53;6126194;23;20029;-83
2023/12/05 07:07:29;;;;;;;33.67;18.02;;;;;;;-0.83;100.00;99704.72;6102541;23;20028;-81
2023/12/05 07:09:56;;;;;;;29.70;15.88;;;;;;;-0.81;100.00;99705.59;6127850;23;20035;-82
2023/12/05 07:12:24;;;;;;;31.85;17.30;;;;;;;-0.75;100.00;99707.44;6123443;23;20112;-82
2023/12/05 07:14:51;;;;;;;39.22;17.88;;;;;;;-0.79;100.00;99700.50;6103409;23;20024;-84
2023/12/05 07:17:18;;;;;;;35.35;18.23;;;;;;;-0.81;100.00;99709.88;6104496;23;20451;-80
2023/12/05 07:19:45;;;;;;;34.10;17.67;;;;;;;-0.84;100.00;99698.69;6103230;23;20048;-81
2023/12/05 07:22:12;;;;;;;35.28;17.50;;;;;;;-0.80;100.00;99704.75;6106448;23;20733;-81
2023/12/05 07:24:39;;;;;;;31.33;18.15;;;;;;;-0.74;100.00;99704.91;6131075;23;20052;-82
2023/12/05 07:27:05;;;;;;;34.85;18.58;;;;;;;-0.71;100.00;99704.09;6133239;23;20018;-81
2023/12/05 07:29:32;;;;;;;33.85;17.98;;;;;;;-0.81;100.00;99704.72;6105496;23;20017;-80
2023/12/05 07:31:59;;;;;;;31.98;16.75;;;;;;;-0.75;100.00;99702.31;6106052;23;20526;-80
2023/12/05 07:34:25;;;;;;;31.92;17.67;;;;;;;-0.78;100.00;99705.69;6103356;23;20407;-80
2023/12/05 07:36:52;;;;;;;35.92;18.08;;;;;;;-0.76;100.00;99708.28;6103366;23;20076;-80
2023/12/05 07:39:18;;;;;;;38.42;18.00;;;;;;;-0.74;100.00;99712.63;6128564;23;20024;-80
2023/12/05 07:41:45;;;;;;;33.58;16.48;;;;;;;-0.69;100.00;99716.16;6123920;23;20096;-80
2023/12/05 07:44:12;;;;;;;31.80;19.55;;;;;;;-0.64;100.00;99711.09;6102292;23;20045;-80
2023/12/05 07:46:43;;;;;;;32.35;16.02;;;;;;;-0.64;100.00;99710.25;6100690;23;20025;-80
2023/12/05 07:49:10;;;;;;;37.35;18.40;;;;;;;-0.61;100.00;99715.44;6102618;23;20051;-82
2023/12/05 07:51:37;;;;;;;31.95;18.42;;;;;;;-0.70;100.00;99710.97;6099464;23;20076;-80
2023/12/05 07:54:05;;;;;;;32.88;18.00;;;;;;;-0.68;100.00;99717.00;6101074;23;20021;-81
2023/12/05 07:56:32;;;;;;;39.15;18.05;;;;;;;-0.64;100.00;99720.53;6102103;23;20027;-81
2023/12/05 07:58:59;;;;;;;50.70;20.42;;;;;;;-0.56;100.00;99716.41;6101668;23;20047;-80
2023/12/05 08:01:26;;;;;;;39.45;19.58;;;;;;;-0.55;100.00;99721.59;6127854;23;20029;-81
2023/12/05 08:03:53;;;;;;;43.08;18.30;;;;;;;-0.58;100.00;99718.94;6121834;23;20088;-81
2023/12/05 08:06:20;;;;;;;40.38;18.10;;;;;;;-0.57;100.00;99718.13;6120352;23;20025;-80
2023/12/05 08:08:47;;;;;;;118.47;31.02;;;;;;;-0.48;100.00;99714.00;6095567;23;20053;-79
2023/12/05 08:11:13;;;;;;;40.90;19.67;;;;;;;-0.50;100.00;99719.09;6117462;23;20018;-80
2023/12/05 08:13:40;;;;;;;45.78;20.40;;;;;;;-0.48;100.00;99719.13;6116947;23;20108;-80
2023/12/05 08:16:07;;;;;;;39.08;19.10;;;;;;;-0.40;100.00;99717.59;6095368;23;20513;-79
2023/12/05 08:18:33;;;;;;;65.93;21.75;;;;;;;-0.41;100.00;99721.00;6093673;23;20523;-79
2023/12/05 08:21:00;;;;;;;41.65;19.80;;;;;;;-0.46;100.00;99720.91;6096121;23;20026;-80
2023/12/05 08:23:26;;;;;;;62.13;21.33;;;;;;;-0.46;100.00;99728.59;6119357;23;20026;-82
2023/12/05 08:25:53;;;;;;;44.35;20.00;;;;;;;-0.49;100.00;99728.56;6093611;23;20474;-81
2023/12/05 08:28:20;;;;;;;36.50;19.25;;;;;;;-0.46;100.00;99733.75;6093611;23;20045;-82
2023/12/05 08:30:46;;;;;;;49.72;19.00;;;;;;;-0.55;100.00;99742.16;6094192;23;20113;-80
2023/12/05 08:33:15;;;;;;;33.95;19.33;;;;;;;-0.47;100.00;99734.63;6093551;23;20036;-80
2023/12/05 08:35:41;;;;;;;78.95;23.73;;;;;;;-0.42;100.00;99740.69;6094077;23;20399;-81
2023/12/05 08:38:09;;;;;;;52.92;22.23;;;;;;;-0.37;100.00;99741.66;6119585;23;20053;-81
2023/12/05 08:40:36;;;;;;;40.05;18.98;;;;;;;-0.46;100.00;99740.59;6094182;23;20041;-81
2023/12/05 08:43:06;;;;;;;104.85;27.33;;;;;;;-0.36;100.00;99745.13;6094985;23;20081;-81
2023/12/05 08:45:33;;;;;;;34.35;17.85;;;;;;;-0.34;100.00;99738.28;6094526;23;20507;-80
2023/12/05 08:47:59;;;;;;;70.43;23.40;;;;;;;-0.34;100.00;99746.88;6093752;23;20018;-80
2023/12/05 08:50:26;;;;;;;82.47;25.23;;;;;;;-0.24;100.00;99740.19;6117553;23;20105;-81
2023/12/05 08:52:52;;;;;;;54.00;24.67;;;;;;;-0.23;100.00;99736.81;6092334;23;20657;-82
2023/12/05 08:55:19;;;;;;;44.55;19.63;;;;;;;-0.25;100.00;99742.75;6094258;23;20108;-81
2023/12/05 08:57:46;;;;;;;62.13;21.85;;;;;;;-0.25;100.00;99745.31;6093314;23;20499;-81
2023/12/05 09:00:13;;;;;;;33.25;18.25;;;;;;;-0.33;100.00;99742.59;6119280;23;20024;-80
2023/12/05 09:02:40;;;;;;;38.90;20.42;;;;;;;-0.26;100.00;99749.63;6092293;23;20029;-80
2023/12/05 09:05:07;;;;;;;35.30;19.42;;;;;;;-0.32;100.00;99752.03;6138739;23;20025;-82
2023/12/05 09:07:33;;;;;;;38.80;19.35;;;;;;;-0.25;100.00;99753.03;6098141;23;20066;-80
2023/12/05 09:10:00;;;;;;;35.25;19.88;;;;;;;-0.23;100.00;99741.09;6125496;23;20103;-82
2023/12/05 09:12:27;;;;;;;37.65;18.02;;;;;;;-0.29;100.00;99746.94;6100839;23;20021;-80
2023/12/05 09:14:54;;;;;;;48.70;19.88;;;;;;;-0.25;100.00;99751.34;6099236;23;20032;-80
2023/12/05 09:17:23;;;;;;;44.35;20.30;;;;;;;-0.25;100.00;99761.63;6101194;23;20021;-81
2023/12/05 09:19:51;;;;;;;32.60;18.70;;;;;;;-0.20;100.00;99756.56;6126838;23;20021;-80
2023/12/05 09:22:18;;;;;;;43.63;18.40;;;;;;;-0.19;100.00;99760.88;6102233;23;20030;-80
2023/12/05 09:24:45;;;;;;;38.95;19.38;;;;;;;-0.08;100.00;99756.84;6099452;23;20312;-81
2023/12/05 09:27:12;;;;;;;52.08;20.80;;;;;;;-0.05;100.00;99762.03;6124250;23;20096;-80
2023/12/05 09:29:39;;;;;;;38.67;18.17;;;;;;;0.01;100.00;99756.13;6100434;23;20025;-81
2023/12/05 09:32:06;;;;;;;40.15;19.85;;;;;;;-0.03;100.00;99760.38;6124791;23;20025;-80
2023/12/05 09:34:32;;;;;;;40.53;20.02;;;;;;;-0.01;100.00;99761.25;6100400;23;20025;-81
2023/12/05 09:36:59;;;;;;;56.67;21.02;;;;;;;0.01;100.00;99760.41;6125560;23;20017;-80
2023/12/05 09:39:25;;;;;;;38.85;20.35;;;;;;;-0.08;100.00;99756.84;6124228;23;20096;-81
2023/12/05 09:41:53;;;;;;;40.33;18.98;;;;;;;0.02;100.00;99759.59;6124511;23;20032;-79
2023/12/05 09:44:24;;;;;;;34.35;18.95;;;;;;;0.07;100.00;99757.97;6100464;23;20048;-80
2023/12/05 09:46:52;;;;;;;35.65;18.20;;;;;;;0.08;100.00;99765.72;6125132;23;20022;-79
2023/12/05 09:49:23;;;;;;;37.17;19.10;;;;;;;0.12;100.00;99756.34;6125229;23;20053;-79
2023/12/05 09:51:50;;;;;;;48.65;19.55;;;;;;;0.14;100.00;99765.84;6123807;23;20084;-81
2023/12/05 09:54:17;;;;;;;55.90;21.05;;;;;;;0.20;100.00;99756.50;6123582;23;20274;-80
2023/12/05 09:56:45;;;;;;;33.10;18.30;;;;;;;0.19;100.00;99755.59;6100099;23;20136;-82
2023/12/05 09:59:13;;;;;;;42.53;19.40;;;;;;;0.30;100.00;99758.38;6119233;23;20017;-79
2023/12/05 10:01:42;;;;;;;49.08;21.20;;;;;;;0.39;100.00;99752.53;6097238;23;20051;-83
2023/12/05 10:04:12;;;;;;;46.95;18.75;;;;;;;0.34;100.00;99752.47;6100802;23;20029;-83
2023/12/05 10:06:40;;;;;;;35.10;18.08;;;;;;;0.33;100.00;99750.72;6124395;23;20510;-81
2023/12/05 10:09:13;;;;;;;34.75;18.30;;;;;;;0.34;100.00;99757.59;6123604;23;20041;-80
2023/12/05 10:11:42;;;;;;;39.22;18.58;;;;;;;0.42;100.00;99750.88;6099416;23;20025;-81
2023/12/05 10:14:10;;;;;;;38.08;18.58;;;;;;;0.40;100.00;99752.53;6075462;23;20036;-83
2023/12/05 10:16:37;;;;;;;35.95;19.05;;;;;;;0.42;100.00;99744.88;6099963;23;20017;-81
2023/12/05 10:19:05;;;;;;;38.97;21.23;;;;;;;0.40;100.00;99754.28;6124076;23;20339;-82
2023/12/05 10:21:31;;;;;;;49.72;21.80;;;;;;;0.42;100.00;99747.44;6099137;23;20108;-81
2023/12/05 10:23:59;;;;;;;36.50;18.45;;;;;;;0.42;100.00;99745.72;6124109;23;20109;-80
2023/12/05 10:26:25;;;;;;;41.22;21.60;;;;;;;0.46;100.00;99744.09;6124767;23;20077;-82
2023/12/05 10:28:56;;;;;;;31.33;18.02;;;;;;;0.46;100.00;99742.38;6125952;23;20834;-82
2023/12/05 10:31:24;;;;;;;43.60;19.23;;;;;;;0.53;100.00;99740.75;6102330;23;20080;-83
2023/12/05 10:33:51;;;;;;;42.28;20.33;;;;;;;0.48;100.00;99743.28;6152088;23;20100;-79
2023/12/05 10:36:19;;;;;;;32.97;18.27;;;;;;;0.56;100.00;99737.38;6129933;23;20065;-83
2023/12/05 10:38:47;;;;;;;30.25;18.02;;;;;;;0.61;100.00;99739.19;6105309;23;20081;-82
2023/12/05 10:41:24;;;;;;;30.67;17.25;;;;;;;0.65;100.00;99733.25;6128318;23;20017;-82
2023/12/05 10:43:52;;;;;;;32.58;19.02;;;;;;;0.75;100.00;99735.97;6103123;23;20051;-82
2023/12/05 10:46:19;;;;;;;32.03;18.25;;;;;;;0.70;100.00;99735.03;6126374;23;20026;-81
2023/12/05 10:48:45;;;;;;;34.63;17.77;;;;;;;0.75;100.00;99733.41;6126987;23;20053;-81
2023/12/05 10:51:12;;;;;;;36.70;18.77;;;;;;;0.79;100.00;99735.19;6104023;23;20021;-82
2023/12/05 10:53:40;;;;;;;35.45;18.08;;;;;;;0.87;100.00;99725.00;6102993;23;20466;-82
2023/12/05 10:56:18;;;;;;;34.55;17.58;;;;;;;0.91;100.00;99727.66;6104780;23;20022;-81
2023/12/05 10:58:45;;;;;;;31.67;16.63;;;;;;;0.87;100.00;99728.41;6102537;23;20041;-80
2023/12/05 11:01:17;;;;;;;39.35;19.02;;;;;;;0.82;100.00;99728.38;6103576;23;20049;-80
2023/12/05 11:03:45;;;;;;;32.78;16.48;;;;;;;0.84;100.00;99724.94;6107475;23;20022;-81
2023/12/05 11:06:12;;;;;;;30.42;16.15;;;;;;;0.82;100.00;99725.78;6103232;23;20064;-82
2023/12/05 11:08:38;;;;;;;34.83;16.38;;;;;;;0.83;100.00;99721.50;6102769;23;20025;-83
2023/12/05 11:11:06;;;;;;;36.03;18.98;;;;;;;0.90;100.00;99720.75;6127378;23;20021;-80